Time;durP1;ratioP1;P1;durP2;ratioP2;P2;SDS_P1;SDS_P2;PMS_P1;PMS_P2;Temp;Humidity;BMP_temperature;BMP_pressure;BME280_temperature;BME280_humidity;BME280_pressure;Samples;Min_cycle;Max_cycle;Signal;HPM_P1;HPM_P2
2023/02/20 00:01:52;;;;;;;2.80;1.30;;;;;;;8.82;91.69;97315.16;5059224;28;20224;-67
2023/02/20 00:04:19;;;;;;;3.03;1.30;;;;;;;8.84;91.66;97313.19;5058481;28;20215;-67
2023/02/20 00:06:45;;;;;;;4.27;1.13;;;;;;;8.71;91.87;97328.41;5059454;28;20223;-68
2023/02/20 00:09:13;;;;;;;3.50;1.70;;;;;;;8.81;92.09;97333.69;5059019;28;21064;-66
2023/02/20 00:11:39;;;;;;;3.83;1.47;;;;;;;8.70;92.92;97321.50;5058617;28;20215;-67
2023/02/20 00:14:06;;;;;;;2.10;1.13;;;;;;;8.69;94.40;97325.13;5058407;28;20205;-67
2023/02/20 00:16:34;;;;;;;4.30;1.17;;;;;;;8.67;96.29;97319.16;5059717;28;20211;-67
2023/02/20 00:19:00;;;;;;;6.47;1.80;;;;;;;8.48;97.76;97312.25;5058512;28;20709;-65
2023/02/20 00:21:27;;;;;;;6.80;1.50;;;;;;;8.56;97.20;97303.53;5058755;28;20358;-67
2023/02/20 00:23:53;;;;;;;4.20;1.50;;;;;;;8.53;97.78;97303.81;5057904;28;20723;-67
2023/02/20 00:26:20;;;;;;;5.47;1.87;;;;;;;8.60;97.53;97304.09;5059113;28;20224;-67
2023/02/20 00:28:46;;;;;;;1.40;1.00;;;;;;;8.50;97.60;97304.09;5058113;28;20216;-67
2023/02/20 00:31:17;;;;;;;4.57;1.57;;;;;;;8.66;97.38;97314.06;5058241;28;20581;-66
2023/02/20 00:33:45;;;;;;;6.83;2.03;;;;;;;8.54;97.48;97313.38;5057850;28;20228;-68
2023/02/20 00:36:15;;;;;;;3.73;1.50;;;;;;;8.73;96.94;97315.97;5058177;28;20205;-66
2023/02/20 00:38:42;;;;;;;3.50;1.70;;;;;;;8.64;96.93;97314.19;5058227;28;20224;-66
2023/02/20 00:41:10;;;;;;;4.17;1.60;;;;;;;8.62;96.87;97312.69;5058627;28;20207;-66
2023/02/20 00:43:37;;;;;;;7.30;1.80;;;;;;;8.57;97.25;97313.06;5057628;28;20248;-67
2023/02/20 00:46:04;;;;;;;1.50;1.17;;;;;;;8.52;97.03;97312.66;5058828;28;20200;-67
2023/02/20 00:48:30;;;;;;;4.53;1.57;;;;;;;8.48;96.82;97313.09;5058082;28;20703;-67
2023/02/20 00:50:58;;;;;;;4.90;2.20;;;;;;;8.66;96.24;97308.78;5057606;28;20205;-66
2023/02/20 00:53:25;;;;;;;5.23;1.67;;;;;;;8.54;97.35;97313.38;5057692;28;20227;-67
2023/02/20 00:55:51;;;;;;;4.53;1.80;;;;;;;8.40;98.43;97315.59;5058273;28;20197;-67
2023/02/20 00:58:18;;;;;;;3.43;1.53;;;;;;;8.54;97.19;97318.63;5057596;28;20237;-67
2023/02/20 01:00:44;;;;;;;3.10;1.63;;;;;;;8.57;97.00;97314.88;5057919;28;21099;-67
2023/02/20 01:03:11;;;;;;;6.07;2.10;;;;;;;8.55;96.97;97307.16;5058253;28;20251;-67
2023/02/20 01:05:38;;;;;;;5.77;2.10;;;;;;;8.45;97.08;97310.72;5056827;28;20214;-67
2023/02/20 01:08:06;;;;;;;6.20;2.20;;;;;;;8.64;96.75;97311.56;5057851;28;20208;-67
2023/02/20 01:10:32;;;;;;;5.17;2.00;;;;;;;8.49;96.81;97312.94;5057552;28;20200;-66
2023/02/20 01:12:59;;;;;;;5.97;2.13;;;;;;;8.38;98.04;97329.81;5057865;28;20220;-67
2023/02/20 01:15:25;;;;;;;5.03;2.00;;;;;;;8.39;97.73;97336.72;5056789;28;20207;-66
2023/02/20 01:17:52;;;;;;;3.17;1.40;;;;;;;8.40;97.46;97330.50;5058097;28;20231;-66
2023/02/20 01:20:18;;;;;;;3.33;1.67;;;;;;;8.37;98.01;97341.28;5057259;28;20205;-67
2023/02/20 01:22:45;;;;;;;4.20;1.70;;;;;;;8.43;97.27;97338.13;5057391;28;20224;-66
2023/02/20 01:25:13;;;;;;;2.57;1.20;;;;;;;8.57;96.56;97330.66;5057638;28;20204;-67
2023/02/20 01:27:39;;;;;;;3.50;1.80;;;;;;;8.53;96.70;97326.66;5057802;28;20208;-68
2023/02/20 01:30:07;;;;;;;2.60;1.93;;;;;;;8.55;97.48;97322.06;5057139;28;20196;-67
2023/02/20 01:32:34;;;;;;;3.70;1.83;;;;;;;8.28;98.12;97310.59;5057234;28;20345;-65
2023/02/20 01:35:00;;;;;;;3.47;2.40;;;;;;;8.38;97.83;97308.81;5057586;28;20211;-67
2023/02/20 01:37:27;;;;;;;2.87;1.50;;;;;;;8.44;97.41;97302.97;5056692;28;20215;-68
2023/02/20 01:39:53;;;;;;;4.33;1.87;;;;;;;8.52;96.72;97307.41;5057339;28;20231;-67
2023/02/20 01:42:24;;;;;;;3.87;1.83;;;;;;;8.61;96.51;97306.56;5056785;28;20228;-66
2023/02/20 01:44:51;;;;;;;3.60;1.90;;;;;;;8.45;97.01;97300.22;5056672;28;20213;-67
2023/02/20 01:47:20;;;;;;;4.60;1.23;;;;;;;8.46;97.58;97298.44;5056967;28;20197;-68
2023/02/20 01:49:50;;;;;;;5.10;2.53;;;;;;;8.60;96.82;97302.31;5057141;28;20215;-67
2023/02/20 01:52:20;;;;;;;3.50;1.70;;;;;;;8.54;96.78;97302.00;5056733;28;20227;-67
2023/02/20 01:54:52;;;;;;;7.73;2.07;;;;;;;8.55;96.47;97296.63;5056208;28;20200;-67
2023/02/20 01:57:24;;;;;;;9.20;2.37;;;;;;;8.63;96.05;97293.28;5057112;28;21171;-66
2023/02/20 01:59:53;;;;;;;3.03;1.90;;;;;;;8.47;97.28;97297.47;5056888;28;20196;-67
2023/02/20 02:02:21;;;;;;;4.67;1.63;;;;;;;8.46;96.57;97291.38;5056760;28;20220;-66
2023/02/20 02:04:49;;;;;;;4.40;1.57;;;;;;;8.43;96.36;97296.91;5056469;28;20204;-66
2023/02/20 02:07:16;;;;;;;4.23;1.50;;;;;;;8.48;96.36;97301.72;5056831;28;20208;-66
2023/02/20 02:09:48;;;;;;;5.03;2.23;;;;;;;8.46;97.01;97309.75;5056560;28;20201;-68
2023/02/20 02:12:15;;;;;;;5.87;1.70;;;;;;;8.37;96.82;97297.44;5056690;28;20763;-68
2023/02/20 02:14:42;;;;;;;4.97;1.73;;;;;;;8.58;96.00;97301.59;5056348;28;20209;-67
2023/02/20 02:17:50;;;;;;;4.93;1.60;;;;;;;8.57;95.34;97294.69;5056333;28;20762;-67
2023/02/20 02:20:45;;;;;;;3.03;1.90;;;;;;;8.53;95.67;97293.31;5056472;28;20211;-67
2023/02/20 02:23:37;;;;;;;4.73;1.70;;;;;;;8.56;95.81;97277.25;5056342;28;20231;-66
2023/02/20 02:26:18;;;;;;;7.47;2.00;;;;;;;8.57;95.76;97286.81;5056538;28;20673;-66
2023/02/20 02:29:09;;;;;;;5.00;1.80;;;;;;;8.52;95.55;97283.75;5056693;28;20211;-68
2023/02/20 02:32:13;;;;;;;5.03;2.40;;;;;;;8.62;95.04;97284.59;5057593;28;20217;-65
2023/02/20 02:35:12;;;;;;;8.90;2.83;;;;;;;8.53;95.10;97277.53;4994373;28;20206;-67
2023/02/20 02:37:48;;;;;;;5.27;2.30;;;;;;;8.35;96.57;97269.66;5056841;28;20204;-67
2023/02/20 02:40:26;;;;;;;5.40;2.00;;;;;;;8.35;96.24;97270.50;5056350;28;20200;-67
2023/02/20 02:43:04;;;;;;;5.20;1.80;;;;;;;8.47;95.50;97261.53;5056381;28;20652;-67
2023/02/20 02:45:37;;;;;;;8.40;2.23;;;;;;;8.31;96.12;97260.41;5055543;28;20220;-66
2023/02/20 02:48:10;;;;;;;5.13;1.90;;;;;;;8.21;96.60;97260.44;5056534;28;20201;-67
2023/02/20 02:50:40;;;;;;;3.87;1.87;;;;;;;8.36;95.66;97259.03;5056573;28;20215;-67
2023/02/20 02:53:09;;;;;;;4.03;1.33;;;;;;;8.35;95.93;97253.91;5057892;28;20220;-66
2023/02/20 02:55:36;;;;;;;4.73;2.20;;;;;;;8.22;95.54;97266.50;5059812;28;20581;-68
2023/02/20 02:58:05;;;;;;;4.50;1.67;;;;;;;8.28;95.18;97263.31;5060457;28;20232;-66
2023/02/20 03:00:35;;;;;;;2.67;1.20;;;;;;;8.29;95.12;97257.94;5060235;28;20204;-67
2023/02/20 03:03:08;;;;;;;5.57;2.23;;;;;;;8.33;95.03;97263.75;5060400;28;20224;-68
2023/02/20 03:05:50;;;;;;;3.27;1.60;;;;;;;8.32;94.80;97273.41;5059814;28;20219;-65
2023/02/20 03:08:30;;;;;;;5.83;2.33;;;;;;;8.32;94.64;97276.03;5059819;28;20561;-67
2023/02/20 03:11:01;;;;;;;3.27;1.53;;;;;;;8.27;95.16;97270.34;5059846;28;20200;-67
2023/02/20 03:16:20;;;;;;;3.67;2.17;;;;;;;8.21;95.02;97260.44;5057906;28;20207;-67
2023/02/20 03:18:49;;;;;;;6.23;2.07;;;;;;;8.23;94.62;97252.41;5060021;28;20225;-68
2023/02/20 03:21:19;;;;;;;5.23;1.63;;;;;;;8.12;95.58;97255.13;5060033;28;21270;-65
2023/02/20 03:23:53;;;;;;;2.27;1.60;;;;;;;8.07;95.51;97252.06;5059566;28;20235;-68
2023/02/20 03:26:28;;;;;;;5.70;2.50;;;;;;;7.99;96.01;97250.16;5059475;28;20686;-67
2023/02/20 03:28:59;;;;;;;7.47;2.17;;;;;;;8.16;94.84;97261.78;5059779;28;20207;-67
2023/02/20 03:31:32;;;;;;;9.03;2.13;;;;;;;8.09;94.66;97264.09;5060057;28;20209;-66
2023/02/20 03:45:14;;;;;;;3.70;1.80;;;;;;;8.04;94.15;97266.34;5059277;28;20247;-67
2023/02/20 03:47:44;;;;;;;6.93;1.70;;;;;;;8.05;94.45;97254.84;5059068;28;20572;-66
2023/02/20 03:50:13;;;;;;;1.93;1.47;;;;;;;8.09;93.84;97258.03;5059393;28;20205;-68
2023/02/20 03:52:40;;;;;;;6.40;1.50;;;;;;;7.96;93.54;97260.09;5059276;28;20227;-67
2023/02/20 03:55:08;;;;;;;7.33;1.93;;;;;;;7.98;93.83;97271.25;5058916;28;20684;-67
2023/02/20 03:57:41;;;;;;;4.90;2.00;;;;;;;7.99;93.73;97265.91;5059071;28;20231;-67
2023/02/20 04:00:11;;;;;;;5.73;2.00;;;;;;;7.97;94.34;97256.50;5059981;28;20243;-66
2023/02/20 04:02:42;;;;;;;4.13;1.70;;;;;;;7.95;94.72;97254.00;5058705;28;20235;-68
2023/02/20 04:05:13;;;;;;;9.37;2.67;;;;;;;7.88;94.63;97252.09;5058471;28;20254;-67
2023/02/20 04:07:46;;;;;;;3.47;1.73;;;;;;;7.86;94.95;97256.63;5058848;28;20700;-67
2023/02/20 04:10:19;;;;;;;6.80;1.83;;;;;;;7.64;95.70;97262.09;5058906;28;20704;-65
2023/02/20 04:12:48;;;;;;;11.97;2.43;;;;;;;7.81;95.46;97256.19;5059288;28;20216;-67
2023/02/20 04:15:17;;;;;;;5.43;2.73;;;;;;;7.73;95.54;97253.44;5058637;28;20197;-68
2023/02/20 04:17:49;;;;;;;8.03;1.70;;;;;;;7.69;95.94;97259.91;5058973;28;20204;-66
2023/02/20 04:20:16;;;;;;;3.20;1.77;;;;;;;7.59;96.38;97259.06;5058331;28;20216;-65
2023/02/20 04:22:47;;;;;;;8.67;2.33;;;;;;;7.70;95.82;97264.19;5058992;28;20713;-67
2023/02/20 04:25:21;;;;;;;6.70;2.30;;;;;;;7.56;97.17;97259.34;5058492;28;20208;-68
2023/02/20 04:27:48;;;;;;;4.13;2.30;;;;;;;7.54;96.58;97266.50;5058623;28;20358;-66
2023/02/20 04:30:14;;;;;;;7.50;2.23;;;;;;;7.40;97.57;97269.47;5058769;28;20211;-67
2023/02/20 04:32:41;;;;;;;4.03;1.90;;;;;;;7.44;96.84;97268.25;5059085;28;20221;-68
2023/02/20 04:35:15;;;;;;;3.83;2.00;;;;;;;7.57;96.66;97273.25;5057972;28;20206;-66
2023/02/20 04:37:42;;;;;;;3.57;2.03;;;;;;;7.34;97.60;97272.66;5058730;28;20227;-65
2023/02/20 04:40:09;;;;;;;4.57;1.90;;;;;;;7.46;96.81;97265.53;5059152;28;20243;-67
2023/02/20 04:42:37;;;;;;;7.37;1.90;;;;;;;7.43;96.95;97266.59;5058384;28;20235;-66
2023/02/20 04:45:04;;;;;;;4.87;2.63;;;;;;;7.40;97.16;97253.75;5057244;28;21130;-67
2023/02/20 04:47:30;;;;;;;4.83;1.87;;;;;;;7.28;97.53;97265.31;5058493;28;20209;-67
2023/02/20 04:49:57;;;;;;;5.97;2.13;;;;;;;7.35;96.59;97263.81;5058337;28;20204;-67
2023/02/20 04:52:24;;;;;;;6.67;1.40;;;;;;;7.28;97.46;97265.31;5057932;28;20228;-65
2023/02/20 04:54:51;;;;;;;3.60;1.80;;;;;;;7.19;98.34;97272.28;5057899;28;20287;-65
2023/02/20 04:57:17;;;;;;;2.67;1.37;;;;;;;7.30;97.23;97270.41;5058335;28;20201;-68
2023/02/20 04:59:45;;;;;;;7.03;2.40;;;;;;;7.32;97.42;97269.31;5057709;28;20241;-66
2023/02/20 05:02:12;;;;;;;13.50;3.57;;;;;;;7.11;98.63;97280.00;5058835;28;20224;-67
2023/02/20 05:04:38;;;;;;;5.17;2.50;;;;;;;7.06;98.21;97269.88;5057063;28;20215;-66
2023/02/20 05:07:05;;;;;;;8.53;3.17;;;;;;;7.09;98.51;97276.66;5057865;28;20219;-67
2023/02/20 05:09:31;;;;;;;4.63;2.33;;;;;;;7.07;98.64;97268.09;5058233;28;20243;-67
2023/02/20 05:11:58;;;;;;;7.23;3.10;;;;;;;7.01;99.08;97266.81;5058473;28;20331;-67
2023/02/20 05:14:24;;;;;;;3.93;2.13;;;;;;;7.11;98.34;97269.50;5056720;28;20212;-67
2023/02/20 05:16:52;;;;;;;8.77;3.07;;;;;;;7.17;98.72;97275.06;5056941;28;20924;-65
2023/02/20 05:19:18;;;;;;;9.10;2.53;;;;;;;7.05;98.29;97280.50;5057856;28;20220;-66
2023/02/20 05:24:31;;;;;;;6.13;2.67;;;;;;;6.99;99.00;97273.19;5056777;28;21200;-66
2023/02/20 05:26:57;;;;;;;7.80;2.37;;;;;;;7.01;98.49;97266.00;5057241;28;20200;-68
2023/02/20 05:29:24;;;;;;;6.33;2.27;;;;;;;6.91;98.79;97272.97;5056707;28;20212;-67
2023/02/20 05:31:52;;;;;;;4.77;2.30;;;;;;;6.86;99.47;97275.16;5056388;28;21260;-67
2023/02/20 05:34:20;;;;;;;6.70;2.47;;;;;;;6.75;99.59;97272.63;5056559;28;20459;-67
2023/02/20 05:36:46;;;;;;;12.67;2.77;;;;;;;6.85;99.23;97274.34;5057060;28;20653;-68
2023/02/20 05:39:13;;;;;;;7.20;2.27;;;;;;;6.79;99.71;97284.50;5056397;28;20220;-67
2023/02/20 05:41:39;;;;;;;11.73;3.03;;;;;;;6.88;98.83;97288.97;5056586;28;20201;-67
2023/02/20 05:44:05;;;;;;;8.33;2.90;;;;;;;6.89;98.65;97288.00;5055553;28;20212;-67
2023/02/20 05:46:32;;;;;;;10.17;2.30;;;;;;;6.91;97.95;97283.47;5056382;28;20945;-68
2023/02/20 05:49:00;;;;;;;4.23;2.47;;;;;;;6.96;98.66;97292.63;5056647;28;20681;-68
2023/02/20 05:51:28;;;;;;;10.10;4.20;;;;;;;6.88;99.01;97295.03;5056048;28;20673;-67
2023/02/20 05:53:56;;;;;;;10.33;4.60;;;;;;;6.70;99.42;97299.19;5055174;28;20227;-66
2023/02/20 05:56:23;;;;;;;8.13;3.60;;;;;;;6.73;99.81;97300.72;5056356;28;20211;-67
2023/02/20 05:58:49;;;;;;;5.20;2.47;;;;;;;6.73;99.53;97305.97;5056419;28;20203;-67
2023/02/20 06:01:17;;;;;;;10.33;3.00;;;;;;;6.75;99.72;97296.19;5056179;28;20204;-67
2023/02/20 06:03:44;;;;;;;5.47;2.97;;;;;;;6.47;100.00;97296.81;5055761;28;20232;-66
2023/02/20 06:06:12;;;;;;;8.20;2.93;;;;;;;6.47;100.00;97294.22;5056594;28;20204;-68
2023/02/20 06:08:39;;;;;;;9.20;3.00;;;;;;;6.53;100.00;97298.94;5056187;28;20212;-67
2023/02/20 06:11:06;;;;;;;11.90;3.30;;;;;;;6.42;100.00;97299.00;5055846;28;20715;-65
2023/02/20 06:13:32;;;;;;;5.00;2.50;;;;;;;6.51;100.00;97289.56;5056672;28;21393;-65
2023/02/20 06:15:59;;;;;;;10.77;3.03;;;;;;;6.58;100.00;97301.16;5056506;28;20204;-67
2023/02/20 06:18:25;;;;;;;8.23;3.50;;;;;;;6.46;100.00;97291.72;5056309;28;20203;-68
2023/02/20 06:20:51;;;;;;;9.60;3.03;;;;;;;6.42;100.00;97296.38;5057764;28;21315;-68
2023/02/20 06:23:19;;;;;;;5.83;2.10;;;;;;;6.54;100.00;97295.34;5056682;28;20556;-68
2023/02/20 06:25:46;;;;;;;9.10;2.67;;;;;;;6.49;100.00;97292.31;5055668;28;20743;-68
2023/02/20 06:28:12;;;;;;;21.20;6.20;;;;;;;6.44;100.00;97293.63;5056366;28;20215;-67
2023/02/20 06:30:38;;;;;;;10.20;3.80;;;;;;;6.41;100.00;97294.69;5056924;28;20201;-67
2023/02/20 06:33:05;;;;;;;6.27;2.77;;;;;;;6.43;100.00;97295.41;5056206;28;20224;-66
2023/02/20 06:35:31;;;;;;;10.73;3.07;;;;;;;6.29;100.00;97293.09;5056392;28;20690;-67
2023/02/20 06:37:58;;;;;;;10.60;3.13;;;;;;;6.39;99.96;97291.41;5056773;28;20197;-68
2023/02/20 06:40:25;;;;;;;11.80;2.40;;;;;;;6.55;99.37;97307.47;5056110;28;20235;-66
2023/02/20 06:42:52;;;;;;;10.17;2.80;;;;;;;6.51;99.36;97305.25;5056874;28;20220;-66
2023/02/20 06:45:18;;;;;;;9.13;2.57;;;;;;;6.60;99.05;97310.56;5057419;28;20245;-67
2023/02/20 06:47:45;;;;;;;5.03;2.17;;;;;;;6.64;98.71;97325.06;5056404;28;20208;-68
2023/02/20 06:50:11;;;;;;;3.93;1.83;;;;;;;6.49;98.80;97321.09;5056927;28;20605;-68
2023/02/20 06:52:38;;;;;;;5.47;2.13;;;;;;;6.63;98.24;97318.16;5055924;28;20771;-69
2023/02/20 06:55:05;;;;;;;4.50;2.17;;;;;;;6.62;97.95;97323.53;5055361;28;20212;-68
2023/02/20 06:57:33;;;;;;;8.23;3.00;;;;;;;6.69;97.91;97325.50;5056525;28;20211;-68
2023/02/20 06:59:59;;;;;;;8.80;3.63;;;;;;;6.64;97.59;97339.94;5056499;28;20227;-66
2023/02/20 07:02:26;;;;;;;6.20;2.20;;;;;;;6.61;98.09;97335.78;5055951;28;20243;-67
2023/02/20 07:04:52;;;;;;;8.97;2.97;;;;;;;6.62;97.48;97334.00;5055604;28;20686;-69
2023/02/20 07:07:18;;;;;;;4.80;2.20;;;;;;;6.70;97.38;97329.78;5056141;28;20212;-69
2023/02/20 07:09:45;;;;;;;7.00;2.47;;;;;;;6.75;97.05;97336.31;5056623;28;20212;-68
2023/02/20 07:12:11;;;;;;;5.50;2.50;;;;;;;6.78;96.94;97328.22;5056036;28;20223;-69
2023/02/20 07:14:39;;;;;;;7.67;2.13;;;;;;;6.78;96.81;97322.13;5055791;28;20215;-69
2023/02/20 07:17:06;;;;;;;8.43;2.77;;;;;;;6.86;96.46;97322.31;5056503;28;20211;-67
2023/02/20 07:19:32;;;;;;;11.33;2.90;;;;;;;6.96;95.89;97325.81;5055845;28;20239;-68
2023/02/20 07:21:59;;;;;;;9.63;3.33;;;;;;;7.02;96.06;97333.19;5056152;28;20652;-68
2023/02/20 07:24:25;;;;;;;8.17;2.73;;;;;;;7.18;94.99;97338.78;5055782;28;20563;-68
2023/02/20 07:26:52;;;;;;;5.27;2.80;;;;;;;7.16;94.12;97328.44;5055512;28;20208;-68
2023/02/20 07:29:18;;;;;;;4.40;2.23;;;;;;;7.05;94.95;97328.53;5056063;28;20205;-67
2023/02/20 07:31:46;;;;;;;8.97;2.57;;;;;;;7.28;94.59;97330.84;5057319;28;20216;-68
2023/02/20 07:34:12;;;;;;;7.57;2.57;;;;;;;7.27;93.41;97329.19;5055192;28;20200;-67
2023/02/20 07:36:41;;;;;;;4.27;1.90;;;;;;;7.31;93.83;97329.75;5055599;28;20209;-68
2023/02/20 07:39:07;;;;;;;5.33;2.10;;;;;;;7.33;93.32;97339.16;5057635;28;20201;-68
2023/02/20 07:41:34;;;;;;;5.97;2.20;;;;;;;7.28;93.62;97335.28;5059856;28;21120;-69
2023/02/20 07:44:01;;;;;;;9.47;2.67;;;;;;;7.36;93.98;97332.81;5058497;28;20742;-68
2023/02/20 07:46:32;;;;;;;4.63;2.40;;;;;;;7.46;92.52;97337.13;5059421;28;20205;-68
2023/02/20 07:49:00;;;;;;;4.47;2.00;;;;;;;7.63;92.52;97330.44;5059351;28;20208;-69
2023/02/20 07:51:27;;;;;;;3.87;1.77;;;;;;;7.41;92.63;97341.13;5059787;28;20238;-67
2023/02/20 07:53:53;;;;;;;5.77;2.03;;;;;;;7.33;93.72;97338.31;5058627;28;20306;-67
2023/02/20 07:56:21;;;;;;;5.93;2.37;;;;;;;7.51;93.71;97339.34;5059149;28;20197;-67
2023/02/20 07:58:48;;;;;;;5.97;2.00;;;;;;;7.49;93.43;97329.00;5059647;28;20197;-68
2023/02/20 08:01:14;;;;;;;6.33;2.47;;;;;;;7.56;92.67;97324.06;5058995;28;20716;-69
2023/02/20 08:03:41;;;;;;;8.73;2.87;;;;;;;7.53;93.30;97324.31;5058325;28;20235;-68
2023/02/20 08:06:09;;;;;;;8.90;2.77;;;;;;;7.74;93.33;97320.69;5059150;28;20208;-68
2023/02/20 08:08:35;;;;;;;6.13;2.93;;;;;;;7.76;92.72;97318.75;5059138;28;20278;-67
2023/02/20 08:11:02;;;;;;;5.20;2.17;;;;;;;7.84;90.96;97325.94;5059195;28;20196;-68
2023/02/20 08:13:28;;;;;;;9.90;2.23;;;;;;;7.96;91.09;97313.41;5059040;28;20220;-67
2023/02/20 08:15:54;;;;;;;11.03;3.10;;;;;;;7.97;90.44;97309.81;5057095;28;20208;-67
2023/02/20 08:18:21;;;;;;;6.63;3.27;;;;;;;7.87;91.09;97303.72;5057891;28;20251;-67
2023/02/20 08:20:48;;;;;;;8.37;3.10;;;;;;;7.92;90.66;97301.53;5058298;28;20600;-67
2023/02/20 08:23:18;;;;;;;4.83;2.83;;;;;;;8.08;90.59;97291.34;5057905;28;20228;-68
2023/02/20 08:25:45;;;;;;;5.63;2.30;;;;;;;7.93;90.42;97292.69;5057331;28;20209;-68
2023/02/20 08:28:11;;;;;;;7.67;2.90;;;;;;;8.12;90.13;97284.84;5058046;28;20196;-68
2023/02/20 08:30:38;;;;;;;5.13;2.77;;;;;;;8.07;89.44;97271.31;5057682;28;20227;-68
2023/02/20 08:33:05;;;;;;;3.07;1.93;;;;;;;8.17;88.83;97268.69;5057891;28;20216;-68
2023/02/20 08:35:33;;;;;;;5.90;2.53;;;;;;;8.22;88.75;97277.00;5056617;28;20699;-69
2023/02/20 08:37:59;;;;;;;3.37;1.77;;;;;;;8.27;89.08;97280.03;5057497;28;20459;-68
2023/02/20 08:40:27;;;;;;;3.80;2.03;;;;;;;8.35;88.51;97282.81;5056960;28;20220;-69
2023/02/20 08:42:54;;;;;;;7.43;2.80;;;;;;;8.35;89.14;97278.41;5056615;28;20223;-67
2023/02/20 08:45:21;;;;;;;5.00;2.30;;;;;;;8.36;87.78;97269.53;5056215;28;20204;-69
2023/02/20 08:47:48;;;;;;;3.73;2.03;;;;;;;8.58;87.52;97271.88;5058283;28;20228;-68
2023/02/20 08:50:15;;;;;;;7.97;3.10;;;;;;;8.75;86.78;97271.16;5055734;28;20319;-67
2023/02/20 08:52:42;;;;;;;4.17;2.37;;;;;;;8.96;85.08;97253.41;5057246;28;20748;-67
2023/02/20 08:55:09;;;;;;;9.70;2.63;;;;;;;8.98;85.72;97260.19;5057330;28;20204;-69
2023/02/20 08:57:37;;;;;;;5.50;2.83;;;;;;;9.03;85.05;97265.03;5057551;28;20881;-67
2023/02/20 09:00:06;;;;;;;6.13;2.70;;;;;;;9.22;83.95;97271.03;5056783;28;20228;-69
2023/02/20 09:02:32;;;;;;;7.87;2.53;;;;;;;9.21;83.10;97266.75;5056705;28;20240;-68
2023/02/20 09:04:59;;;;;;;10.30;3.30;;;;;;;9.33;82.80;97258.53;5058040;28;20204;-69
2023/02/20 09:07:25;;;;;;;5.27;2.80;;;;;;;9.46;81.09;97260.84;5056759;28;20208;-67
2023/02/20 09:09:52;;;;;;;7.77;2.03;;;;;;;9.23;80.95;97251.66;5057574;28;20200;-68
2023/02/20 09:12:19;;;;;;;10.47;2.87;;;;;;;9.36;81.30;97246.91;5057432;28;20220;-69
2023/02/20 09:14:47;;;;;;;10.43;2.47;;;;;;;9.54;80.47;97245.16;5057024;28;20208;-69
2023/02/20 09:17:13;;;;;;;9.57;2.17;;;;;;;9.41;80.04;97239.41;5057999;28;20201;-69
2023/02/20 09:19:40;;;;;;;6.27;2.27;;;;;;;9.47;80.15;97238.81;5058165;28;20209;-68
2023/02/20 09:22:06;;;;;;;5.87;2.47;;;;;;;9.61;79.89;97235.69;5057929;28;20342;-67
2023/02/20 09:24:34;;;;;;;2.67;1.63;;;;;;;9.65;79.80;97226.50;5057227;28;20568;-69
2023/02/20 09:27:01;;;;;;;5.77;2.33;;;;;;;9.83;79.89;97230.84;5058167;28;20550;-69
2023/02/20 09:29:28;;;;;;;14.13;2.40;;;;;;;9.87;78.33;97232.22;5057843;28;20630;-68
2023/02/20 09:31:55;;;;;;;3.07;0.97;;;;;;;9.95;78.33;97233.13;5057688;28;20220;-67
2023/02/20 09:34:22;;;;;;;7.40;2.40;;;;;;;9.99;79.01;97236.31;5056911;28;20199;-68
2023/02/20 09:36:49;;;;;;;4.70;2.30;;;;;;;10.03;78.11;97230.59;5057274;28;21130;-66
2023/02/20 09:39:16;;;;;;;5.13;2.57;;;;;;;10.14;77.79;97237.44;5057740;28;20220;-67
2023/02/20 09:42:02;;;;;;;9.07;2.13;;;;;;;10.41;76.91;97235.56;5057273;28;20755;-67
2023/02/20 09:44:39;;;;;;;4.80;1.90;;;;;;;10.42;76.72;97229.31;5056821;28;20208;-69
2023/02/20 09:47:24;;;;;;;3.50;1.13;;;;;;;10.44;76.23;97224.72;5057119;28;20204;-68
2023/02/20 09:49:52;;;;;;;3.37;1.60;;;;;;;10.32;76.24;97211.94;5057173;28;20200;-67
2023/02/20 09:52:19;;;;;;;9.57;2.13;;;;;;;10.27;76.56;97206.28;5057683;28;20223;-68
2023/02/20 09:54:50;;;;;;;8.90;2.40;;;;;;;10.33;76.50;97210.00;5056461;28;20204;-69
2023/02/20 09:57:20;;;;;;;3.43;1.87;;;;;;;10.40;76.89;97204.94;5056900;28;20204;-69
2023/02/20 09:59:52;;;;;;;4.87;1.83;;;;;;;10.46;77.01;97199.03;5057377;28;20208;-69
2023/02/20 10:02:24;;;;;;;3.07;2.03;;;;;;;10.61;76.91;97198.31;5055860;28;20901;-69
2023/02/20 10:04:53;;;;;;;6.53;2.53;;;;;;;10.69;76.32;97197.56;5055985;28;20201;-67
2023/02/20 10:07:24;;;;;;;6.67;2.27;;;;;;;10.77;76.70;97193.19;5057687;28;20908;-68
2023/02/20 10:09:51;;;;;;;7.90;2.60;;;;;;;10.83;76.41;97191.72;5056207;28;20208;-68
2023/02/20 10:12:27;;;;;;;8.03;2.60;;;;;;;11.18;75.51;97181.88;5056514;28;20220;-69
2023/02/20 10:15:07;;;;;;;5.80;2.37;;;;;;;11.39;74.79;97179.66;5055643;28;20201;-69
2023/02/20 10:17:43;;;;;;;4.30;2.17;;;;;;;11.38;74.10;97177.97;5055852;28;20204;-69
2023/02/20 10:20:16;;;;;;;8.23;2.67;;;;;;;11.51;72.65;97176.59;5055893;28;20376;-68
2023/02/20 10:22:52;;;;;;;7.13;2.07;;;;;;;11.63;73.06;97183.22;5055956;28;20224;-68
2023/02/20 10:25:25;;;;;;;4.53;2.23;;;;;;;11.62;72.24;97181.56;5054706;28;20660;-67
2023/02/20 10:27:54;;;;;;;8.27;2.37;;;;;;;11.68;70.84;97175.66;5055633;28;20581;-68
2023/02/20 10:30:27;;;;;;;5.40;2.37;;;;;;;11.80;71.02;97169.06;5055831;28;20634;-69
2023/02/20 10:33:02;;;;;;;5.20;2.00;;;;;;;11.99;70.84;97158.22;5055231;28;20807;-69
2023/02/20 10:35:36;;;;;;;9.50;2.70;;;;;;;11.88;68.50;97163.81;5054419;28;21054;-67
2023/02/20 10:38:07;;;;;;;7.17;2.47;;;;;;;11.92;68.57;97157.22;5055657;28;20660;-68
2023/02/20 10:40:39;;;;;;;6.77;3.20;;;;;;;12.07;68.84;97160.88;5056202;28;20323;-68
2023/02/20 10:43:13;;;;;;;3.57;1.80;;;;;;;12.07;68.32;97155.59;5055165;28;20216;-68
2023/02/20 10:45:47;;;;;;;7.60;2.10;;;;;;;12.39;68.50;97157.25;5054824;28;20210;-68
2023/02/20 10:48:15;;;;;;;4.77;1.80;;;;;;;12.33;64.77;97147.34;5055188;28;20615;-69
2023/02/20 10:50:47;;;;;;;4.37;1.63;;;;;;;12.23;64.39;97141.41;5054858;28;20665;-69
2023/02/20 10:53:20;;;;;;;6.10;1.67;;;;;;;12.27;63.19;97136.59;5055436;28;20243;-69
2023/02/20 10:55:54;;;;;;;2.90;1.50;;;;;;;12.41;63.13;97134.13;5054930;28;20213;-68
2023/02/20 10:58:25;;;;;;;4.13;2.10;;;;;;;12.59;63.14;97131.28;5056155;28;20239;-69
2023/02/20 11:00:55;;;;;;;4.27;1.80;;;;;;;12.78;63.00;97121.19;5055804;28;20220;-69
2023/02/20 11:03:29;;;;;;;8.63;1.90;;;;;;;12.83;62.67;97119.66;5055885;28;20220;-69
2023/02/20 11:06:00;;;;;;;3.47;1.90;;;;;;;12.76;61.85;97119.69;5055338;28;20278;-69
2023/02/20 11:08:27;;;;;;;3.70;1.50;;;;;;;12.72;61.26;97116.56;5054972;28;21079;-68
2023/02/20 11:10:58;;;;;;;3.70;1.47;;;;;;;13.03;61.53;97105.06;5055294;28;20196;-68
2023/02/20 11:13:25;;;;;;;2.23;1.47;;;;;;;12.93;61.29;97111.56;5056201;28;20220;-69
2023/02/20 11:15:53;;;;;;;4.63;1.63;;;;;;;13.13;61.43;97099.59;5058508;28;20200;-69
2023/02/20 11:18:28;;;;;;;4.47;1.90;;;;;;;13.13;60.83;97096.94;5059707;28;20208;-69
2023/02/20 11:20:55;;;;;;;6.57;1.63;;;;;;;13.05;61.78;97092.50;5059057;28;20215;-67
2023/02/20 11:23:41;;;;;;;3.37;1.50;;;;;;;13.20;60.83;97093.44;5059195;28;20311;-69
2023/02/20 11:26:33;;;;;;;6.27;1.83;;;;;;;13.26;61.73;97089.28;5059948;28;20212;-68
2023/02/20 11:29:05;;;;;;;3.17;1.47;;;;;;;13.40;60.38;97090.19;5059214;28;20196;-68
2023/02/20 11:31:32;;;;;;;1.77;1.23;;;;;;;13.25;60.21;97085.81;5058858;28;20689;-68
2023/02/20 11:34:02;;;;;;;4.80;1.50;;;;;;;13.44;60.58;97088.84;5058722;28;20204;-69
2023/02/20 11:36:35;;;;;;;2.43;1.23;;;;;;;13.53;58.99;97092.25;5059443;28;20205;-69
2023/02/20 11:39:06;;;;;;;4.40;1.83;;;;;;;13.28;59.24;97082.81;5059435;28;20215;-67
2023/02/20 11:41:35;;;;;;;2.53;1.60;;;;;;;13.39;60.49;97077.94;5058312;28;20235;-69
2023/02/20 11:44:21;;;;;;;3.97;2.00;;;;;;;13.54;59.06;97068.28;5058441;28;20200;-68
2023/02/20 11:47:07;;;;;;;4.17;1.87;;;;;;;13.49;59.89;97069.78;5058435;28;20715;-69
2023/02/20 11:49:35;;;;;;;4.73;1.80;;;;;;;13.56;59.49;97070.75;5059323;28;20213;-69
2023/02/20 11:52:10;;;;;;;2.03;1.50;;;;;;;13.75;59.92;97057.84;5058516;28;20221;-69
2023/02/20 11:54:36;;;;;;;3.57;1.73;;;;;;;13.65;60.56;97056.44;5058035;28;20295;-69
2023/02/20 11:57:17;;;;;;;9.17;2.40;;;;;;;13.86;59.38;97052.16;5058361;28;20201;-68
2023/02/20 11:59:45;;;;;;;7.97;2.20;;;;;;;13.89;59.78;97046.50;5058874;28;20204;-68
2023/02/20 12:02:27;;;;;;;4.10;1.50;;;;;;;14.16;58.48;97049.44;5058626;28;20657;-70
2023/02/20 12:05:08;;;;;;;3.67;2.17;;;;;;;14.13;58.79;97035.72;5057814;28;20197;-69
2023/02/20 12:07:37;;;;;;;4.30;1.87;;;;;;;14.12;59.26;97042.03;5058427;28;20954;-69